Rosemere, Canada
Current Conditions -  °F | °C
As of 4:00 AM on Wednesday 28 Jan 2015 (Local Time) from CYMX Reporting Station
Broken Clouds Broken Clouds  
Wind Chill:   Ceiling: 19000
Heat Index:   Visibility: 25mi
Dew Point: -9°   Wind: 3mph
Humidity: 48%   Direction: 300°WNW
Pressure: 30.04"   Gusts: NA
Location:  45.63°N, 73.82°W
Report Text: CYMX 280900Z 30003KT 25SM SCT120 BKN190 M14/M23 A3004 RMK AC4AS3 SLP180
Loading
Personal Weather Stations






























Interactive Weather Map New forecast layout! Learn more

10-Day Weather Forecast

Advertisements
Track Severe Weather on mobile